createdAt,value
2022-08-22T00:00:19.000Z,0
2022-08-22T00:01:23.914Z,0
2022-08-22T00:02:21.808Z,0
2022-08-22T00:02:51.267Z,0
2022-08-22T00:02:51.850Z,0
2022-08-22T00:03:05.288Z,0
2022-08-22T00:03:50.947Z,0
2022-08-22T00:04:46.212Z,0
2022-08-22T00:05:39.407Z,0
2022-08-22T00:06:39.606Z,0
2022-08-22T00:07:40.520Z,0
2022-08-22T00:08:41.279Z,0
2022-08-22T00:09:42.775Z,0
2022-08-22T00:10:43.268Z,0
2022-08-22T00:11:45.988Z,0
2022-08-22T00:12:43.329Z,0
2022-08-22T00:13:44.248Z,0
2022-08-22T00:14:45.250Z,0
2022-08-22T00:15:59.708Z,0
2022-08-22T00:16:45.931Z,0
2022-08-22T00:17:45.551Z,0
2022-08-22T00:18:46.472Z,0
2022-08-22T00:19:47.390Z,0
2022-08-22T00:20:48.303Z,0
2022-08-22T00:21:52.844Z,0
2022-08-22T00:22:50.065Z,0
2022-08-22T00:23:50.710Z,0
2022-08-22T00:24:51.405Z,0
2022-08-22T00:25:52.615Z,0
2022-08-22T00:26:56.491Z,0
2022-08-22T00:28:01.978Z,0
2022-08-22T00:28:54.898Z,0
2022-08-22T00:29:57.582Z,0
2022-08-22T00:30:57.081Z,0
2022-08-22T00:31:56.998Z,0
2022-08-22T00:32:57.921Z,0
2022-08-22T00:33:58.148Z,0
2022-08-22T00:34:58.297Z,0
2022-08-22T00:36:02.101Z,0
2022-08-22T00:37:04.522Z,0
2022-08-22T00:38:00.566Z,0
2022-08-22T00:39:00.781Z,0
2022-08-22T00:40:03.300Z,0
2022-08-22T00:41:02.132Z,0
2022-08-22T00:42:03.025Z,0
2022-08-22T00:43:04.266Z,0
2022-08-22T00:44:04.159Z,0
2022-08-22T00:45:05.131Z,0
2022-08-22T00:46:06.743Z,0
2022-08-22T00:47:07.568Z,0
2022-08-22T00:48:09.034Z,0
2022-08-22T00:49:08.662Z,0
2022-08-22T00:50:08.855Z,0
2022-08-22T00:51:08.772Z,0
2022-08-22T00:52:09.693Z,0
2022-08-22T00:53:13.081Z,0
2022-08-22T00:54:17.466Z,0
2022-08-22T00:55:11.327Z,0
2022-08-22T00:56:11.665Z,0
2022-08-22T00:57:12.580Z,0
2022-08-22T00:58:13.739Z,0
2022-08-22T00:59:35.129Z,0
2022-08-22T01:00:14.065Z,0
2022-08-22T01:01:14.359Z,0
2022-08-22T01:02:14.992Z,0
2022-08-22T01:03:15.321Z,0
2022-08-22T01:04:16.220Z,0
2022-08-22T01:05:18.396Z,0
2022-08-22T01:06:17.672Z,0
2022-08-22T01:07:17.939Z,0
2022-08-22T01:08:17.862Z,0
2022-08-22T01:09:18.785Z,0
2022-08-22T01:10:19.690Z,0
2022-08-22T01:11:20.306Z,0
2022-08-22T01:12:21.224Z,0
2022-08-22T01:13:24.138Z,0
2022-08-22T01:14:34.239Z,0
2022-08-22T01:15:22.206Z,0
2022-08-22T01:16:23.418Z,0
2022-08-22T01:17:24.039Z,0
2022-08-22T01:18:25.234Z,0
2022-08-22T01:19:24.555Z,0
2022-08-22T01:20:25.481Z,0
2022-08-22T01:21:35.018Z,0
2022-08-22T01:22:27.214Z,0
2022-08-22T01:23:27.147Z,0
2022-08-22T01:24:29.773Z,0
2022-08-22T01:25:37.121Z,0
2022-08-22T01:26:33.968Z,0
2022-08-22T01:27:31.597Z,0
2022-08-22T01:28:36.881Z,0
2022-08-22T01:29:39.511Z,0
2022-08-22T01:30:34.720Z,0
2022-08-22T01:31:32.760Z,0
2022-08-22T01:32:33.687Z,0
2022-08-22T01:33:33.902Z,0
2022-08-22T01:34:34.219Z,0
2022-08-22T01:35:34.660Z,0
2022-08-22T01:36:35.589Z,0
2022-08-22T01:37:35.482Z,0
2022-08-22T01:38:36.408Z,0
2022-08-22T01:39:36.747Z,0
2022-08-22T01:40:38.262Z,0
2022-08-22T01:41:37.260Z,0
2022-08-22T01:42:37.754Z,0
2022-08-22T01:44:15.744Z,0
2022-08-22T01:44:38.242Z,0
2022-08-22T01:45:37.691Z,0
2022-08-22T01:46:38.308Z,0
2022-08-22T01:47:48.536Z,0
2022-08-22T01:48:40.371Z,0
2022-08-22T01:49:40.857Z,0
2022-08-22T01:50:40.466Z,0
2022-08-22T01:51:41.083Z,0
2022-08-22T01:52:41.998Z,0
2022-08-22T01:53:44.777Z,0
2022-08-22T01:54:43.700Z,0
2022-08-22T01:55:43.275Z,0
2022-08-22T01:56:44.467Z,0
2022-08-22T01:57:44.960Z,0
2022-08-22T01:58:44.577Z,0
2022-08-22T01:59:53.925Z,0
2022-08-22T02:00:52.176Z,0
2022-08-22T02:01:47.362Z,0
2022-08-22T02:02:46.976Z,0
2022-08-22T02:03:47.606Z,0
2022-08-22T02:04:47.933Z,0
2022-08-22T02:05:48.651Z,0
2022-08-22T02:06:48.848Z,0
2022-08-22T02:07:48.741Z,0
2022-08-22T02:08:49.362Z,0
2022-08-22T02:09:51.349Z,0
2022-08-22T02:10:51.253Z,0
2022-08-22T02:11:52.170Z,0
2022-08-22T02:12:52.090Z,0
2022-08-22T02:13:53.009Z,0
2022-08-22T02:14:52.905Z,0
2022-08-22T02:15:54.696Z,0
2022-08-22T02:16:54.336Z,0
2022-08-22T02:17:55.856Z,0
2022-08-22T02:18:55.839Z,0
2022-08-22T02:19:55.573Z,0
2022-08-22T02:20:56.777Z,0
2022-08-22T02:21:59.440Z,0
2022-08-22T02:23:01.027Z,0
2022-08-22T02:24:01.425Z,0
2022-08-22T02:24:59.049Z,0
2022-08-22T02:25:59.770Z,0
2022-08-22T02:27:00.712Z,0
2022-08-22T02:28:00.974Z,0
2022-08-22T02:29:13.624Z,0
2022-08-22T02:30:01.268Z,0
2022-08-22T02:31:01.596Z,0
2022-08-22T02:32:02.785Z,0
2022-08-22T02:33:03.428Z,0
2022-08-22T02:34:04.625Z,0
2022-08-22T02:35:05.060Z,0
2022-08-22T02:36:06.048Z,0
2022-08-22T02:37:09.405Z,0
2022-08-22T02:38:08.186Z,0
2022-08-22T02:39:09.380Z,0
2022-08-22T02:40:10.304Z,0
2022-08-22T02:41:11.224Z,0
2022-08-22T02:42:11.566Z,0
2022-08-22T02:43:12.761Z,0
2022-08-22T02:44:12.958Z,0
2022-08-22T02:45:13.723Z,0
2022-08-22T02:46:13.140Z,0
2022-08-22T02:47:14.061Z,0
2022-08-22T02:48:15.539Z,0
2022-08-22T02:49:14.574Z,0
2022-08-22T02:50:18.517Z,0
2022-08-22T02:51:16.437Z,0
2022-08-22T02:52:17.068Z,0
2022-08-22T02:53:21.158Z,0
2022-08-22T02:54:19.372Z,0
2022-08-22T02:55:19.548Z,0
2022-08-22T02:56:20.264Z,0
2022-08-22T02:57:25.577Z,0
2022-08-22T02:58:21.466Z,0
2022-08-22T02:59:21.664Z,0
2022-08-22T03:00:44.400Z,0
2022-08-22T03:01:22.782Z,0
2022-08-22T03:02:22.697Z,0
2022-08-22T03:03:22.895Z,0
2022-08-22T03:04:23.399Z,0
2022-08-22T03:05:23.807Z,0
2022-08-22T03:06:27.649Z,0
2022-08-22T03:07:24.566Z,0
2022-08-22T03:08:26.608Z,0
2022-08-22T03:09:26.410Z,0
2022-08-22T03:10:27.625Z,0
2022-08-22T03:11:27.247Z,0
2022-08-22T03:12:28.463Z,0
2022-08-22T03:13:29.094Z,0
2022-08-22T03:14:28.416Z,0
2022-08-22T03:15:29.616Z,0
2022-08-22T03:16:30.619Z,0
2022-08-22T03:17:30.957Z,0
2022-08-22T03:18:32.446Z,0
2022-08-22T03:19:34.684Z,0
2022-08-22T03:20:32.573Z,0
2022-08-22T03:21:34.067Z,0
2022-08-22T03:22:34.817Z,0
2022-08-22T03:23:34.857Z,0
2022-08-22T03:24:36.054Z,0
2022-08-22T03:25:35.951Z,0
2022-08-22T03:26:36.570Z,0
2022-08-22T03:27:54.622Z,0
2022-08-22T03:28:37.840Z,0
2022-08-22T03:29:38.036Z,0
2022-08-22T03:30:38.955Z,0
2022-08-22T03:31:38.852Z,0
2022-08-22T03:32:39.773Z,0
2022-08-22T03:33:40.386Z,0
2022-08-22T03:34:41.862Z,0
2022-08-22T03:35:41.585Z,0
2022-08-22T03:36:42.306Z,0
2022-08-22T03:37:41.915Z,0
2022-08-22T03:38:43.104Z,0
2022-08-22T03:39:42.819Z,0
2022-08-22T03:40:47.820Z,0
2022-08-22T03:41:46.738Z,0
2022-08-22T03:42:45.079Z,0
2022-08-22T03:43:46.012Z,0
2022-08-22T03:44:46.628Z,0
2022-08-22T03:45:48.121Z,0
2022-08-22T03:46:48.398Z,0
2022-08-22T03:47:49.618Z,0
2022-08-22T03:48:49.536Z,0
2022-08-22T03:49:50.761Z,0
2022-08-22T03:50:50.657Z,0
2022-08-22T03:51:51.518Z,0
2022-08-22T03:52:51.715Z,0
2022-08-22T03:53:51.630Z,0
2022-08-22T03:54:52.248Z,0
2022-08-22T03:55:53.871Z,0
2022-08-22T03:57:00.257Z,0
2022-08-22T03:57:54.190Z,0
2022-08-22T03:58:54.511Z,0
2022-08-22T03:59:59.637Z,0
2022-08-22T04:01:01.509Z,0
2022-08-22T04:01:58.097Z,0
2022-08-22T04:03:00.691Z,0
2022-08-22T04:03:58.892Z,0
2022-08-22T04:04:58.972Z,0
2022-08-22T04:06:03.832Z,0
2022-08-22T04:07:28.124Z,0
2022-08-22T04:08:02.007Z,0
2022-08-22T04:09:00.973Z,0
2022-08-22T04:10:07.389Z,0
2022-08-22T04:11:02.734Z,0
2022-08-22T04:12:04.140Z,0
2022-08-22T04:13:05.633Z,0
2022-08-22T04:14:05.566Z,0
2022-08-22T04:15:05.477Z,0
2022-08-22T04:16:06.396Z,0
2022-08-22T04:17:06.392Z,0
2022-08-22T04:18:08.926Z,0
2022-08-22T04:19:08.559Z,0
2022-08-22T04:20:08.173Z,0
2022-08-22T04:21:09.068Z,0
2022-08-22T04:22:10.285Z,0
2022-08-22T04:23:10.904Z,0
2022-08-22T04:24:11.835Z,0
2022-08-22T04:25:19.329Z,0
2022-08-22T04:26:23.607Z,0
2022-08-22T04:27:14.339Z,0
2022-08-22T04:28:14.695Z,0
2022-08-22T04:29:14.886Z,0
2022-08-22T04:30:16.107Z,0
2022-08-22T04:31:15.724Z,0
2022-08-22T04:32:20.118Z,0
2022-08-22T04:33:17.044Z,0
2022-08-22T04:34:18.034Z,0
2022-08-22T04:35:19.669Z,0
2022-08-22T04:36:20.268Z,0
2022-08-22T04:37:20.542Z,0
2022-08-22T04:38:21.464Z,0
2022-08-22T04:39:21.378Z,0
2022-08-22T04:40:22.775Z,0
2022-08-22T04:41:22.431Z,0
2022-08-22T04:42:47.299Z,0
2022-08-22T04:43:24.224Z,0
2022-08-22T04:44:24.722Z,0
2022-08-22T04:45:27.017Z,0
2022-08-22T04:46:25.934Z,5.63
2022-08-22T04:47:27.176Z,5.63
2022-08-22T04:48:27.669Z,5.63
2022-08-22T04:49:28.166Z,5.63
2022-08-22T04:50:28.091Z,5.63
2022-08-22T04:51:28.724Z,5.63
2022-08-22T04:52:34.618Z,5.63
2022-08-22T04:53:29.537Z,5.63
2022-08-22T04:54:30.435Z,5.63
2022-08-22T04:55:31.336Z,5.63
2022-08-22T04:56:32.258Z,11.25
2022-08-22T04:57:32.535Z,11.25
2022-08-22T04:58:32.733Z,11.25
2022-08-22T04:59:35.942Z,11.25
2022-08-22T05:00:34.464Z,11.25
2022-08-22T05:01:34.678Z,11.25
2022-08-22T05:02:35.130Z,11.25
2022-08-22T05:03:36.642Z,11.25
2022-08-22T05:04:36.591Z,11.25
2022-08-22T05:05:36.208Z,11.25
2022-08-22T05:06:37.500Z,11.25
2022-08-22T05:07:41.437Z,11.25
2022-08-22T05:08:38.184Z,11.25
2022-08-22T05:09:38.470Z,16.88
2022-08-22T05:10:38.091Z,16.88
2022-08-22T05:11:39.013Z,16.88
2022-08-22T05:12:44.140Z,16.88
2022-08-22T05:13:41.058Z,16.88
2022-08-22T05:14:41.547Z,16.88
2022-08-22T05:15:42.908Z,16.88
2022-08-22T05:16:42.827Z,16.88
2022-08-22T05:17:44.120Z,16.88
2022-08-22T05:18:46.273Z,16.88
2022-08-22T05:19:51.157Z,16.88
2022-08-22T05:20:46.081Z,22.5
2022-08-22T05:21:46.542Z,22.5
2022-08-22T05:22:46.447Z,22.5
2022-08-22T05:23:47.360Z,22.5
2022-08-22T05:24:47.865Z,22.5
2022-08-22T05:25:49.298Z,22.5
2022-08-22T05:26:48.393Z,22.5
2022-08-22T05:27:48.369Z,22.5
2022-08-22T05:28:52.617Z,22.5
2022-08-22T05:29:49.722Z,22.5
2022-08-22T05:30:51.224Z,22.5
2022-08-22T05:31:50.881Z,22.5
2022-08-22T05:32:51.801Z,22.5
2022-08-22T05:33:52.432Z,22.5
2022-08-22T05:34:56.868Z,22.5
2022-08-22T05:36:03.421Z,22.5
2022-08-22T05:36:54.912Z,22.5
2022-08-22T05:37:54.686Z,22.5
2022-08-22T05:38:55.577Z,22.5
2022-08-22T05:39:56.491Z,28.13
2022-08-22T05:40:57.461Z,28.13
2022-08-22T05:41:58.379Z,28.13
2022-08-22T05:42:59.111Z,28.13
2022-08-22T05:43:58.457Z,33.75
2022-08-22T05:44:59.662Z,33.75
2022-08-22T05:45:59.867Z,28.13
2022-08-22T05:47:00.808Z,28.13
2022-08-22T05:48:01.210Z,28.13
2022-08-22T05:49:01.848Z,28.13
2022-08-22T05:50:02.794Z,28.13
2022-08-22T05:51:07.096Z,33.75
2022-08-22T05:52:02.997Z,28.13
2022-08-22T05:53:03.492Z,28.13
2022-08-22T05:54:03.836Z,22.5
2022-08-22T05:55:04.458Z,28.13
2022-08-22T05:56:05.075Z,28.13
2022-08-22T05:57:08.108Z,16.88
2022-08-22T05:58:07.185Z,16.88
2022-08-22T05:59:08.148Z,22.5
2022-08-22T06:00:06.563Z,22.5
2022-08-22T06:01:07.531Z,22.5
2022-08-22T06:02:08.136Z,28.13
2022-08-22T06:03:08.411Z,39.38
2022-08-22T06:04:08.622Z,39.38
2022-08-22T06:05:12.094Z,45
2022-08-22T06:06:09.326Z,45
2022-08-22T06:07:10.818Z,50.63
2022-08-22T06:08:12.012Z,45
2022-08-22T06:09:11.931Z,56.25
2022-08-22T06:10:13.129Z,56.25
2022-08-22T06:11:13.627Z,56.25
2022-08-22T06:12:22.073Z,56.25
2022-08-22T06:13:16.871Z,56.25
2022-08-22T06:14:18.394Z,56.25
2022-08-22T06:15:26.622Z,56.25
2022-08-22T06:16:16.040Z,56.25
2022-08-22T06:17:16.957Z,56.25
2022-08-22T06:18:17.666Z,56.25
2022-08-22T06:19:31.010Z,61.88
2022-08-22T06:20:18.916Z,61.88
2022-08-22T06:21:19.542Z,61.88
2022-08-22T06:22:30.230Z,61.88
2022-08-22T06:23:21.728Z,61.88
2022-08-22T06:24:22.614Z,61.88
2022-08-22T06:25:22.813Z,50.63
2022-08-22T06:26:37.494Z,50.63
2022-08-22T06:27:23.419Z,45
2022-08-22T06:28:23.631Z,50.63
2022-08-22T06:29:24.253Z,50.63
2022-08-22T06:30:25.176Z,61.88
2022-08-22T06:31:25.822Z,61.88
2022-08-22T06:33:04.487Z,61.88
2022-08-22T06:33:29.358Z,61.88
2022-08-22T06:34:28.579Z,67.5
2022-08-22T06:35:28.189Z,67.5
2022-08-22T06:36:32.375Z,67.5
2022-08-22T06:37:29.295Z,67.5
2022-08-22T06:38:29.544Z,67.5
2022-08-22T06:39:30.747Z,73.13
2022-08-22T06:40:30.812Z,78.75
2022-08-22T06:41:32.032Z,73.13
2022-08-22T06:42:33.498Z,67.5
2022-08-22T06:43:32.412Z,73.13
2022-08-22T06:44:33.396Z,129.38
2022-08-22T06:45:34.018Z,236.25
2022-08-22T06:46:36.041Z,163.13
2022-08-22T06:47:36.251Z,118.13
2022-08-22T06:48:37.476Z,140.63
2022-08-22T06:49:37.388Z,292.5
2022-08-22T06:50:38.583Z,225
2022-08-22T06:51:40.491Z,185.63
2022-08-22T06:52:40.721Z,146.25
2022-08-22T06:53:42.358Z,140.63
2022-08-22T06:54:45.305Z,90
2022-08-22T06:55:42.508Z,90
2022-08-22T06:56:42.116Z,101.25
2022-08-22T06:57:42.769Z,118.13
2022-08-22T06:58:47.529Z,106.88
2022-08-22T06:59:59.281Z,180
2022-08-22T07:00:49.791Z,213.75
2022-08-22T07:01:46.478Z,163.13
2022-08-22T07:02:46.457Z,196.88
2022-08-22T07:03:47.697Z,444.38
2022-08-22T07:04:47.884Z,371.25
2022-08-22T07:05:48.816Z,253.13
2022-08-22T07:06:48.741Z,275.63
2022-08-22T07:07:49.673Z,275.63
2022-08-22T07:08:54.869Z,478.13
2022-08-22T07:09:50.794Z,438.75
2022-08-22T07:10:51.721Z,196.88
2022-08-22T07:11:52.230Z,118.13
2022-08-22T07:12:52.156Z,365.63
2022-08-22T07:13:53.386Z,933.75
2022-08-22T07:14:53.606Z,843.75
2022-08-22T07:15:54.115Z,534.38
2022-08-22T07:16:54.227Z,438.75
2022-08-22T07:17:56.987Z,376.88
2022-08-22T07:18:56.034Z,185.63
2022-08-22T07:19:55.973Z,157.5
2022-08-22T07:21:00.635Z,140.63
2022-08-22T07:21:56.002Z,112.5
2022-08-22T07:22:59.311Z,168.75
2022-08-22T07:23:57.460Z,84.38
2022-08-22T07:24:57.086Z,67.5
2022-08-22T07:25:57.987Z,61.88
2022-08-22T07:26:59.220Z,78.75
2022-08-22T07:28:08.882Z,90
2022-08-22T07:29:22.569Z,50.63
2022-08-22T07:30:32.708Z,45
2022-08-22T07:31:18.896Z,45
2022-08-22T07:32:17.104Z,39.38
2022-08-22T07:33:43.031Z,45
2022-08-22T07:34:19.250Z,73.13
2022-08-22T07:35:19.473Z,90
2022-08-22T07:36:19.106Z,50.63
2022-08-22T07:37:19.726Z,45
2022-08-22T07:38:21.263Z,45
2022-08-22T07:39:22.087Z,39.38
2022-08-22T07:40:21.691Z,45
2022-08-22T07:41:21.943Z,45
2022-08-22T07:42:22.584Z,45
2022-08-22T07:43:23.812Z,45
2022-08-22T07:44:23.734Z,45
2022-08-22T07:45:24.249Z,50.63
2022-08-22T07:46:26.173Z,50.63
2022-08-22T07:47:37.117Z,61.88
2022-08-22T07:48:48.602Z,129.38
2022-08-22T07:49:55.286Z,101.25
2022-08-22T07:50:47.489Z,90
2022-08-22T07:51:47.544Z,112.5
2022-08-22T07:52:49.189Z,129.38
2022-08-22T07:53:49.949Z,118.13
2022-08-22T07:54:50.902Z,95.63
2022-08-22T07:56:06.635Z,95.63
2022-08-22T07:56:52.569Z,95.63
2022-08-22T07:57:52.191Z,95.63
2022-08-22T07:58:53.696Z,95.63
2022-08-22T07:59:53.437Z,95.63
2022-08-22T08:00:54.383Z,95.63
2022-08-22T08:01:55.720Z,95.63
2022-08-22T08:02:55.649Z,106.88
2022-08-22T08:03:57.730Z,225
2022-08-22T08:04:57.091Z,258.75
2022-08-22T08:05:56.720Z,101.25
2022-08-22T08:06:57.101Z,106.88
2022-08-22T08:07:57.837Z,135
2022-08-22T08:08:58.606Z,106.88
2022-08-22T08:09:59.318Z,95.63
2022-08-22T08:11:00.571Z,95.63
2022-08-22T08:12:02.025Z,95.63
2022-08-22T08:13:18.418Z,101.25
2022-08-22T08:14:02.343Z,101.25
2022-08-22T08:15:03.262Z,123.75
2022-08-22T08:16:04.480Z,101.25
2022-08-22T08:17:04.704Z,129.38
2022-08-22T08:18:05.224Z,185.63
2022-08-22T08:19:05.148Z,174.38
2022-08-22T08:20:06.552Z,135
2022-08-22T08:21:06.485Z,146.25
2022-08-22T08:22:06.390Z,129.38
2022-08-22T08:23:07.621Z,185.63
2022-08-22T08:24:08.045Z,213.75
2022-08-22T08:25:08.369Z,208.13
2022-08-22T08:26:10.421Z,219.38
2022-08-22T08:27:09.375Z,337.5
2022-08-22T08:28:15.262Z,208.13
2022-08-22T08:29:10.785Z,95.63
2022-08-22T08:30:15.161Z,95.63
2022-08-22T08:31:12.612Z,95.63
2022-08-22T08:32:13.834Z,95.63
2022-08-22T08:33:41.737Z,95.63
2022-08-22T08:34:14.361Z,219.38
2022-08-22T08:35:15.485Z,708.75
2022-08-22T08:36:19.705Z,843.75
2022-08-22T08:37:18.036Z,551.25
2022-08-22T08:38:17.990Z,95.63
2022-08-22T08:39:18.292Z,95.63
2022-08-22T08:40:19.548Z,95.63
2022-08-22T08:41:22.590Z,90
2022-08-22T08:42:19.615Z,90
2022-08-22T08:43:22.089Z,90
2022-08-22T08:44:21.319Z,90
2022-08-22T08:45:21.254Z,90
2022-08-22T08:46:22.517Z,90
2022-08-22T08:47:23.690Z,90
2022-08-22T08:48:22.323Z,90
2022-08-22T08:49:23.937Z,95.63
2022-08-22T08:50:26.835Z,236.25
2022-08-22T08:51:28.627Z,675
2022-08-22T08:52:25.320Z,1068.75
2022-08-22T08:53:28.471Z,1119.38
2022-08-22T08:54:28.188Z,1102.5
2022-08-22T08:55:42.874Z,1113.75
2022-08-22T08:56:30.971Z,1130.63
2022-08-22T08:57:31.136Z,708.75
2022-08-22T08:58:30.066Z,562.5
2022-08-22T08:59:28.411Z,855
2022-08-22T09:00:35.495Z,1102.5
2022-08-22T09:04:35.791Z,1012.5
2022-08-22T09:05:37.055Z,1023.75
2022-08-22T09:06:37.716Z,1018.13
2022-08-22T09:07:37.250Z,1012.5
2022-08-22T09:08:38.395Z,1074.38
2022-08-22T09:09:40.637Z,1091.25
2022-08-22T09:10:44.599Z,1051.88
2022-08-22T09:11:46.761Z,1023.75
2022-08-22T09:12:43.426Z,1040.63
2022-08-22T09:13:53.145Z,984.38
2022-08-22T09:14:49.769Z,984.38
2022-08-22T09:16:10.072Z,928.13
2022-08-22T09:16:51.853Z,905.63
2022-08-22T09:17:45.013Z,826.88
2022-08-22T09:18:45.930Z,658.13
2022-08-22T09:19:44.571Z,523.13
2022-08-22T09:20:45.200Z,444.38
2022-08-22T09:21:49.046Z,421.88
2022-08-22T09:25:58.074Z,376.88
2022-08-22T09:26:52.033Z,371.25
2022-08-22T09:27:52.546Z,371.25
2022-08-22T09:28:56.891Z,371.25
2022-08-22T09:30:17.217Z,365.63
2022-08-22T09:30:59.765Z,365.63
2022-08-22T09:32:19.037Z,371.25
2022-08-22T09:32:56.264Z,371.25
2022-08-22T09:33:57.292Z,371.25
2022-08-22T09:34:59.109Z,365.63
2022-08-22T09:35:59.602Z,365.63
2022-08-22T09:36:56.893Z,365.63
2022-08-22T09:38:00.914Z,365.63
2022-08-22T09:39:04.339Z,371.25
2022-08-22T09:40:02.476Z,371.25
2022-08-22T09:41:00.648Z,376.88
2022-08-22T09:42:08.217Z,371.25
2022-08-22T09:43:04.237Z,365.63
2022-08-22T09:44:06.255Z,371.25
2022-08-22T09:45:01.329Z,371.25
2022-08-22T09:46:07.210Z,371.25
2022-08-22T09:47:01.716Z,376.88
2022-08-22T09:48:17.545Z,376.88
2022-08-22T09:49:05.504Z,376.88
2022-08-22T09:50:08.840Z,376.88
2022-08-22T09:51:42.874Z,123.75
2022-08-22T09:52:33.335Z,376.88
2022-08-22T09:53:07.728Z,303.75
2022-08-22T09:54:09.379Z,365.63
2022-08-22T09:55:16.106Z,365.63
2022-08-22T09:56:20.428Z,365.63
2022-08-22T09:57:13.970Z,371.25
2022-08-22T09:58:16.950Z,90
2022-08-22T09:59:15.367Z,90
2022-08-22T10:00:14.892Z,67.5
2022-08-22T10:01:13.650Z,56.25
2022-08-22T10:02:27.015Z,56.25
2022-08-22T10:03:18.108Z,56.25
2022-08-22T10:04:19.412Z,56.25
2022-08-22T10:05:35.104Z,50.63
2022-08-22T10:06:21.314Z,50.63
2022-08-22T10:07:24.692Z,253.13
2022-08-22T10:08:25.526Z,264.38
2022-08-22T10:09:25.281Z,118.13
2022-08-22T10:10:20.234Z,73.13
2022-08-22T10:11:24.654Z,73.13
2022-08-22T10:12:32.638Z,146.25
2022-08-22T10:13:27.859Z,382.5
2022-08-22T10:14:27.842Z,320.63
2022-08-22T10:15:25.432Z,365.63
2022-08-22T10:16:26.668Z,360
2022-08-22T10:17:34.106Z,360
2022-08-22T10:18:26.479Z,360
2022-08-22T10:19:25.460Z,365.63
2022-08-22T10:20:27.677Z,371.25
2022-08-22T10:21:27.486Z,382.5
2022-08-22T10:22:29.738Z,388.13
2022-08-22T10:23:32.981Z,388.13
2022-08-22T10:24:49.440Z,416.25
2022-08-22T10:25:29.823Z,416.25
2022-08-22T10:26:43.914Z,427.5
2022-08-22T10:27:39.523Z,433.13
2022-08-22T10:28:34.224Z,438.75
2022-08-22T10:29:33.854Z,438.75
2022-08-22T10:30:34.738Z,450
2022-08-22T10:31:35.093Z,450
2022-08-22T10:32:43.867Z,455.63
2022-08-22T10:33:40.527Z,478.13
2022-08-22T10:34:41.757Z,500.63
2022-08-22T10:35:39.144Z,523.13
2022-08-22T10:36:37.954Z,534.38
2022-08-22T10:37:45.903Z,540
2022-08-22T10:38:51.860Z,540
2022-08-22T10:39:49.406Z,540
2022-08-22T10:40:41.225Z,540
2022-08-22T10:41:41.826Z,540
2022-08-22T10:42:47.083Z,545.63
2022-08-22T10:43:46.427Z,540
2022-08-22T10:44:42.241Z,540
2022-08-22T10:45:52.531Z,540
2022-08-22T10:46:47.679Z,540
2022-08-22T10:47:44.060Z,540
2022-08-22T10:48:44.278Z,556.88
2022-08-22T10:49:45.724Z,545.63
2022-08-22T10:50:48.533Z,551.25
2022-08-22T10:51:47.524Z,545.63
2022-08-22T10:52:47.665Z,540
2022-08-22T10:53:47.823Z,545.63
2022-08-22T10:54:50.499Z,534.38
2022-08-22T10:55:51.126Z,528.75
2022-08-22T10:56:54.802Z,528.75
2022-08-22T10:57:55.863Z,523.13
2022-08-22T10:58:54.375Z,523.13
2022-08-22T10:59:53.338Z,511.88
2022-08-22T11:01:01.252Z,500.63
2022-08-22T11:01:59.317Z,500.63
2022-08-22T11:03:18.785Z,478.13
2022-08-22T11:03:57.977Z,472.5
2022-08-22T11:04:56.997Z,466.88
2022-08-22T11:06:02.349Z,455.63
2022-08-22T11:07:01.447Z,438.75
2022-08-22T11:08:05.031Z,421.88
2022-08-22T11:09:00.674Z,421.88
2022-08-22T11:10:07.159Z,410.63
2022-08-22T11:11:04.038Z,405
2022-08-22T11:12:00.706Z,410.63
2022-08-22T11:13:01.674Z,405
2022-08-22T11:14:06.321Z,405
2022-08-22T11:15:04.651Z,421.88
2022-08-22T11:16:09.637Z,427.5
2022-08-22T11:17:39.790Z,438.75
2022-08-22T11:18:30.485Z,461.25
2022-08-22T11:19:31.986Z,416.25
2022-08-22T11:20:32.283Z,78.75
2022-08-22T11:21:34.218Z,67.5
2022-08-22T11:22:32.663Z,67.5
2022-08-22T11:23:34.991Z,67.5
2022-08-22T11:25:11.187Z,67.5
2022-08-22T11:25:59.198Z,67.5
2022-08-22T11:26:59.673Z,67.5
2022-08-22T11:27:52.453Z,61.88
2022-08-22T11:28:42.037Z,67.5
2022-08-22T11:29:43.539Z,67.5
2022-08-22T11:30:55.666Z,61.88
2022-08-22T11:32:00.425Z,56.25
2022-08-22T11:32:43.027Z,50.63
2022-08-22T11:34:03.629Z,50.63
2022-08-22T11:34:44.790Z,50.63
2022-08-22T11:35:46.515Z,56.25
2022-08-22T11:36:51.712Z,61.88
2022-08-22T11:38:08.871Z,61.88
2022-08-22T11:39:01.125Z,298.13
2022-08-22T11:40:01.526Z,438.75
2022-08-22T11:41:01.139Z,427.5
2022-08-22T11:42:09.592Z,410.63
2022-08-22T11:43:08.276Z,399.38
2022-08-22T11:44:04.525Z,399.38
2022-08-22T11:45:07.357Z,382.5
2022-08-22T11:46:03.878Z,376.88
2022-08-22T11:47:06.122Z,365.63
2022-08-22T11:48:04.973Z,371.25
2022-08-22T11:49:06.750Z,360
2022-08-22T11:50:11.434Z,360
2022-08-22T11:51:18.281Z,354.38
2022-08-22T11:52:08.506Z,360
2022-08-22T11:53:13.031Z,360
2022-08-22T11:54:09.642Z,354.38
2022-08-22T11:55:12.368Z,354.38
2022-08-22T11:56:15.761Z,360
2022-08-22T11:57:11.153Z,360
2022-08-22T11:58:11.909Z,354.38
2022-08-22T11:59:14.455Z,360
2022-08-22T12:00:15.001Z,354.38
2022-08-22T12:01:22.497Z,348.75
2022-08-22T12:02:20.996Z,354.38
2022-08-22T12:03:18.983Z,354.38
2022-08-22T12:04:23.065Z,360
2022-08-22T12:05:26.543Z,354.38
2022-08-22T12:06:20.654Z,360
2022-08-22T12:07:16.988Z,360
2022-08-22T12:08:21.055Z,106.88
2022-08-22T12:09:23.440Z,135
2022-08-22T12:10:27.853Z,112.5
2022-08-22T12:11:20.520Z,95.63
2022-08-22T12:12:23.661Z,90
2022-08-22T12:13:40.287Z,106.88
2022-08-22T12:14:26.962Z,106.88
2022-08-22T12:15:27.726Z,320.63
2022-08-22T12:16:24.466Z,337.5
2022-08-22T12:18:16.364Z,320.63
2022-08-22T12:18:38.303Z,320.63
2022-08-22T12:20:14.954Z,315
2022-08-22T12:20:37.062Z,315
2022-08-22T12:21:43.955Z,309.38
2022-08-22T12:22:39.958Z,309.38
2022-08-22T12:24:06.066Z,309.38
2022-08-22T12:24:39.281Z,309.38
2022-08-22T12:25:44.591Z,309.38
2022-08-22T12:26:41.253Z,309.38
2022-08-22T12:27:56.036Z,309.38
2022-08-22T12:28:42.041Z,315
2022-08-22T12:29:56.208Z,168.75
2022-08-22T12:30:42.416Z,78.75
2022-08-22T12:31:43.300Z,78.75
2022-08-22T12:32:50.843Z,67.5
2022-08-22T12:33:45.146Z,67.5
2022-08-22T12:34:46.780Z,101.25
2022-08-22T12:35:46.724Z,174.38
2022-08-22T12:36:46.048Z,281.25
2022-08-22T12:38:05.146Z,258.75
2022-08-22T12:38:50.060Z,151.88
2022-08-22T12:39:53.757Z,298.13
2022-08-22T12:40:54.533Z,303.75
2022-08-22T12:41:58.978Z,303.75
2022-08-22T12:42:52.950Z,292.5
2022-08-22T12:43:55.054Z,281.25
2022-08-22T12:44:50.253Z,281.25
2022-08-22T12:45:56.158Z,281.25
2022-08-22T12:46:58.666Z,281.25
2022-08-22T12:47:55.657Z,281.25
2022-08-22T12:48:53.805Z,275.63
2022-08-22T12:50:03.437Z,275.63
2022-08-22T12:50:55.319Z,275.63
2022-08-22T12:52:04.141Z,264.38
2022-08-22T12:52:56.074Z,270
2022-08-22T12:53:57.210Z,270
2022-08-22T12:54:57.282Z,270
2022-08-22T12:55:57.224Z,270
2022-08-22T12:57:03.857Z,270
2022-08-22T12:58:13.492Z,67.5
2022-08-22T12:59:02.494Z,56.25
2022-08-22T13:00:03.543Z,56.25
2022-08-22T13:01:04.438Z,50.63
2022-08-22T13:02:01.520Z,45
2022-08-22T13:03:02.342Z,45
2022-08-22T13:04:01.265Z,45
2022-08-22T13:05:04.229Z,39.38
2022-08-22T13:06:25.756Z,39.38
2022-08-22T13:07:08.603Z,45
2022-08-22T13:08:17.462Z,45
2022-08-22T13:09:09.807Z,45
2022-08-22T13:10:10.997Z,50.63
2022-08-22T13:11:15.145Z,50.63
2022-08-22T13:12:13.892Z,56.25
2022-08-22T13:13:21.444Z,56.25
2022-08-22T13:14:25.946Z,61.88
2022-08-22T13:15:10.713Z,208.13
2022-08-22T13:16:11.830Z,253.13
2022-08-22T13:17:37.154Z,236.25
2022-08-22T13:18:44.697Z,230.63
2022-08-22T13:19:24.012Z,230.63
2022-08-22T13:20:14.583Z,225
2022-08-22T13:21:20.662Z,225
2022-08-22T13:22:16.212Z,225
2022-08-22T13:23:23.959Z,225
2022-08-22T13:24:51.666Z,225
2022-08-22T13:25:25.704Z,225
2022-08-22T13:26:40.777Z,219.38
2022-08-22T13:27:27.009Z,219.38
2022-08-22T13:28:21.603Z,219.38
2022-08-22T13:29:53.975Z,225
2022-08-22T13:30:49.265Z,213.75
2022-08-22T13:31:45.412Z,213.75
2022-08-22T13:32:49.928Z,213.75
2022-08-22T13:33:48.892Z,213.75
2022-08-22T13:34:54.029Z,213.75
2022-08-22T13:36:03.164Z,213.75
2022-08-22T13:36:57.267Z,213.75
2022-08-22T13:37:50.173Z,208.13
2022-08-22T13:38:57.710Z,202.5
2022-08-22T13:39:51.035Z,90
2022-08-22T13:41:03.547Z,208.13
2022-08-22T13:41:55.211Z,151.88
2022-08-22T13:42:59.721Z,50.63
2022-08-22T13:43:53.194Z,50.63